createdAt,value
2018-07-01T00:00:32.394Z,46.20
2018-07-01T00:03:01.726Z,45.70
2018-07-01T00:05:31.081Z,45.90
2018-07-01T00:08:00.333Z,45.80
2018-07-01T00:10:29.562Z,45.50
2018-07-01T00:12:58.994Z,46.10
2018-07-01T00:15:28.231Z,46.00
2018-07-01T00:17:57.476Z,45.60
2018-07-01T00:20:26.901Z,46.00
2018-07-01T00:22:56.268Z,45.90
2018-07-01T00:25:25.599Z,45.90
2018-07-01T00:27:54.864Z,46.20
2018-07-01T00:30:24.140Z,46.40
2018-07-01T00:32:53.342Z,47.10
2018-07-01T00:35:22.581Z,44.80
2018-07-01T00:37:51.889Z,44.60
2018-07-01T00:40:21.142Z,44.60
2018-07-01T00:42:50.429Z,45.10
2018-07-01T00:47:48.508Z,44.30
2018-07-01T00:50:17.874Z,44.30
2018-07-01T00:52:47.120Z,44.80
2018-07-01T00:55:16.490Z,44.50
2018-07-01T00:57:45.758Z,44.10
2018-07-01T01:00:15.032Z,44.20
2018-07-01T01:02:44.434Z,44.10
2018-07-01T01:05:13.714Z,44.30
2018-07-01T01:07:42.924Z,44.70
2018-07-01T01:10:12.279Z,44.60
2018-07-01T01:12:41.529Z,44.10
2018-07-01T01:15:10.790Z,44.10
2018-07-01T01:17:40.060Z,44.30
2018-07-01T01:22:38.304Z,44.10
2018-07-01T01:25:07.771Z,44.60
2018-07-01T01:27:37.155Z,45.20
2018-07-01T01:30:06.527Z,44.60
2018-07-01T01:32:36.240Z,44.20
2018-07-01T01:35:05.618Z,44.70
2018-07-01T01:37:35.596Z,44.60
2018-07-01T01:40:05.881Z,44.20
2018-07-01T01:42:40.849Z,44.10
2018-07-01T01:45:14.616Z,44.10
2018-07-01T01:47:48.565Z,44.60
2018-07-01T01:50:26.118Z,44.20
2018-07-01T01:53:03.670Z,44.70
2018-07-01T01:55:38.070Z,44.60
2018-07-01T01:58:11.274Z,44.30
2018-07-01T02:00:49.909Z,44.10
2018-07-01T02:03:30.018Z,44.10
2018-07-01T02:06:17.340Z,44.10
2018-07-01T02:08:55.349Z,44.10
2018-07-01T02:11:25.566Z,44.60
2018-07-01T02:13:58.350Z,44.10
2018-07-01T02:16:31.759Z,44.50
2018-07-01T02:19:01.058Z,44.10
2018-07-01T02:21:30.346Z,44.60
2018-07-01T02:24:05.162Z,44.70
2018-07-01T02:26:34.616Z,44.70
2018-07-01T02:29:03.907Z,44.50
2018-07-01T02:31:33.142Z,44.10
2018-07-01T02:34:02.426Z,44.60
2018-07-01T02:36:31.794Z,44.20
2018-07-01T02:39:01.068Z,44.70
2018-07-01T02:41:30.306Z,44.60
2018-07-01T02:43:59.622Z,44.10
2018-07-01T02:46:28.882Z,44.00
2018-07-01T02:48:58.208Z,43.90
2018-07-01T02:51:27.442Z,43.90
2018-07-01T02:53:56.862Z,44.40
2018-07-01T02:56:26.074Z,44.60
2018-07-01T02:58:55.743Z,44.70
2018-07-01T03:01:25.038Z,44.40
2018-07-01T03:03:54.269Z,44.00
2018-07-01T03:06:23.649Z,44.10
2018-07-01T03:08:52.874Z,44.60
2018-07-01T03:11:22.218Z,44.60
2018-07-01T03:13:51.484Z,44.10
2018-07-01T03:16:20.845Z,44.50
2018-07-01T03:18:50.085Z,44.10
2018-07-01T03:21:19.431Z,44.20
2018-07-01T03:23:48.713Z,44.20
2018-07-01T03:26:17.946Z,44.20
2018-07-01T03:28:47.492Z,44.70
2018-07-01T03:31:17.001Z,43.90
2018-07-01T03:33:46.245Z,44.40
2018-07-01T03:36:15.574Z,44.40
2018-07-01T03:38:44.867Z,44.00
2018-07-01T03:41:14.223Z,44.20
2018-07-01T03:43:43.525Z,44.70
2018-07-01T03:46:12.844Z,44.40
2018-07-01T03:48:42.182Z,43.70
2018-07-01T03:51:11.406Z,44.20
2018-07-01T03:53:40.668Z,44.00
2018-07-01T03:56:09.940Z,44.50
2018-07-01T03:58:39.193Z,43.90
2018-07-01T04:01:08.521Z,44.10
2018-07-01T04:03:37.923Z,44.70
2018-07-01T04:06:07.217Z,44.20
2018-07-01T04:08:36.491Z,44.20
2018-07-01T04:11:05.914Z,44.70
2018-07-01T04:13:35.184Z,44.40
2018-07-01T04:16:04.430Z,44.10
2018-07-01T04:18:33.701Z,44.70
2018-07-01T04:21:03.038Z,44.60
2018-07-01T04:23:32.430Z,44.70
2018-07-01T04:26:01.946Z,44.50
2018-07-01T04:28:31.202Z,44.10
2018-07-01T04:31:00.509Z,44.20
2018-07-01T04:33:29.756Z,44.10
2018-07-01T04:35:59.278Z,44.50
2018-07-01T04:38:28.701Z,44.60
2018-07-01T04:40:57.986Z,44.20
2018-07-01T04:43:27.262Z,44.80
2018-07-01T04:45:56.582Z,44.10
2018-07-01T04:48:25.813Z,44.60
2018-07-01T04:50:55.212Z,44.50
2018-07-01T04:53:24.457Z,44.70
2018-07-01T04:55:53.710Z,44.70
2018-07-01T04:58:22.966Z,44.40
2018-07-01T05:00:52.233Z,44.80
2018-07-01T05:03:21.656Z,44.40
2018-07-01T05:05:50.881Z,44.40
2018-07-01T05:08:20.102Z,44.50
2018-07-01T05:10:49.383Z,45.00
2018-07-01T05:13:18.681Z,44.70
2018-07-01T05:15:47.979Z,46.00
2018-07-01T05:18:17.268Z,45.70
2018-07-01T05:20:46.547Z,45.90
2018-07-01T05:23:15.807Z,45.40
2018-07-01T05:25:45.079Z,45.50
2018-07-01T05:28:14.482Z,45.40
2018-07-01T05:30:43.790Z,45.60
2018-07-01T05:33:13.066Z,46.10
2018-07-01T05:35:42.389Z,44.90
2018-07-01T05:38:11.657Z,45.50
2018-07-01T05:40:40.906Z,44.90
2018-07-01T05:43:10.182Z,45.10
2018-07-01T05:45:39.498Z,44.70
2018-07-01T05:48:08.746Z,44.70
2018-07-01T05:50:38.091Z,45.20
2018-07-01T05:53:08.844Z,45.10
2018-07-01T05:55:38.327Z,44.70
2018-07-01T05:58:07.653Z,44.50
2018-07-01T06:00:36.949Z,44.50
2018-07-01T06:03:06.421Z,45.00
2018-07-01T06:05:35.761Z,44.50
2018-07-01T06:08:05.072Z,44.20
2018-07-01T06:10:34.358Z,44.80
2018-07-01T06:13:03.652Z,44.20
2018-07-01T06:15:46.297Z,44.80
2018-07-01T06:18:18.246Z,44.30
2018-07-01T06:20:48.781Z,44.80
2018-07-01T06:23:32.185Z,44.20
2018-07-01T06:26:03.851Z,44.70
2018-07-01T06:28:33.682Z,44.20
2018-07-01T06:31:04.422Z,44.20
2018-07-01T06:33:33.778Z,44.70
2018-07-01T06:36:03.166Z,44.10
2018-07-01T06:38:33.756Z,44.70
2018-07-01T06:41:03.450Z,44.00
2018-07-01T06:43:32.690Z,43.70
2018-07-01T06:46:06.345Z,42.50
2018-07-01T06:48:36.234Z,42.40
2018-07-01T06:53:35.706Z,43.10
2018-07-01T06:56:05.078Z,42.90
2018-07-01T06:58:35.405Z,42.70
2018-07-01T07:01:04.722Z,42.50
2018-07-01T07:03:34.698Z,43.10
2018-07-01T07:06:08.350Z,42.40
2018-07-01T07:08:39.850Z,43.00
2018-07-01T07:11:09.116Z,42.70
2018-07-01T07:13:38.457Z,42.10
2018-07-01T07:16:07.818Z,42.20
2018-07-01T07:18:37.152Z,42.70
2018-07-01T07:21:06.642Z,42.30
2018-07-01T07:23:35.897Z,42.80
2018-07-01T07:26:05.291Z,42.50
2018-07-01T07:28:34.571Z,42.30
2018-07-01T07:31:03.913Z,42.20
2018-07-01T07:33:33.228Z,42.80
2018-07-01T07:41:00.285Z,42.00
2018-07-01T07:43:29.627Z,41.90
2018-07-01T07:45:59.079Z,42.40
2018-07-01T07:48:28.327Z,41.80
2018-07-01T07:50:57.876Z,42.40
2018-07-01T07:53:27.124Z,41.70
2018-07-01T07:55:56.427Z,41.70
2018-07-01T07:58:26.160Z,42.30
2018-07-01T08:00:56.487Z,41.40
2018-07-01T08:05:54.989Z,42.00
2018-07-01T08:08:24.290Z,41.90
2018-07-01T08:10:53.590Z,41.40
2018-07-01T08:13:22.846Z,42.00
2018-07-01T08:15:52.082Z,41.70
2018-07-01T08:18:21.387Z,41.10
2018-07-01T08:20:50.614Z,40.80
2018-07-01T08:23:19.946Z,40.90
2018-07-01T08:25:49.251Z,40.50
2018-07-01T08:28:18.470Z,41.00
2018-07-01T08:30:47.739Z,41.00
2018-07-01T08:33:16.962Z,40.00
2018-07-01T08:35:46.303Z,40.30
2018-07-01T08:38:15.677Z,40.70
2018-07-01T08:40:45.087Z,40.80
2018-07-01T08:43:15.182Z,40.10
2018-07-01T08:45:44.452Z,40.00
2018-07-01T08:48:13.742Z,40.10
2018-07-01T08:50:42.982Z,39.50
2018-07-01T08:53:12.257Z,39.70
2018-07-01T08:55:41.530Z,40.20
2018-07-01T08:58:10.750Z,40.00
2018-07-01T09:00:40.014Z,39.70
2018-07-01T09:03:09.267Z,40.30
2018-07-01T09:05:38.658Z,39.30
2018-07-01T09:08:07.873Z,39.80
2018-07-01T09:10:37.141Z,36.30
2018-07-01T09:13:06.413Z,37.30
2018-07-01T09:15:35.666Z,38.70
2018-07-01T09:18:04.946Z,38.00
2018-07-01T09:20:34.367Z,38.50
2018-07-01T09:23:03.759Z,38.70
2018-07-01T09:25:33.241Z,38.80
2018-07-01T09:28:02.478Z,38.70
2018-07-01T09:30:31.744Z,38.10
2018-07-01T09:33:00.987Z,38.20
2018-07-01T09:35:30.369Z,38.30
2018-07-01T09:40:28.552Z,38.10
2018-07-01T09:42:57.878Z,38.70
2018-07-01T09:45:27.247Z,38.80
2018-07-01T09:47:56.505Z,38.80
2018-07-01T09:50:25.974Z,38.30
2018-07-01T09:52:55.278Z,38.30
2018-07-01T09:55:24.504Z,38.90
2018-07-01T09:57:53.766Z,38.50
2018-07-01T10:00:23.147Z,37.80
2018-07-01T10:02:52.384Z,38.40
2018-07-01T10:05:21.749Z,38.10
2018-07-01T10:07:51.324Z,37.70
2018-07-01T10:10:20.563Z,37.90
2018-07-01T10:12:50.006Z,38.50
2018-07-01T10:15:19.285Z,38.10
2018-07-01T10:17:48.497Z,38.00
2018-07-01T10:20:17.857Z,38.60
2018-07-01T10:22:47.153Z,38.60
2018-07-01T10:25:16.439Z,38.60
2018-07-01T10:27:45.693Z,38.10
2018-07-01T10:30:15.001Z,38.60
2018-07-01T10:32:44.430Z,38.10
2018-07-01T10:35:13.730Z,38.60
2018-07-01T10:37:43.003Z,38.40
2018-07-01T10:40:12.291Z,37.90
2018-07-01T10:42:41.553Z,38.40
2018-07-01T10:45:10.926Z,38.20
2018-07-01T10:47:40.177Z,38.30
2018-07-01T10:52:38.244Z,38.00
2018-07-01T10:55:07.498Z,38.10
2018-07-01T10:57:36.786Z,38.60
2018-07-01T11:00:05.996Z,38.00
2018-07-01T11:02:35.263Z,38.50
2018-07-01T11:05:04.515Z,38.10
2018-07-01T11:07:33.778Z,38.10
2018-07-01T11:10:03.507Z,38.80
2018-07-01T11:12:32.831Z,38.60
2018-07-01T11:15:02.106Z,39.10
2018-07-01T11:17:31.515Z,39.00
2018-07-01T11:20:00.831Z,40.20
2018-07-01T11:22:30.076Z,39.10
2018-07-01T11:24:59.345Z,39.30
2018-07-01T11:27:28.705Z,39.80
2018-07-01T11:29:57.958Z,39.80
2018-07-01T11:32:27.341Z,39.60
2018-07-01T11:34:56.611Z,39.30
2018-07-01T11:37:26.504Z,39.80
2018-07-01T11:39:55.770Z,39.60
2018-07-01T11:42:25.090Z,39.90
2018-07-01T11:44:54.443Z,39.20
2018-07-01T11:47:23.913Z,39.30
2018-07-01T11:49:53.314Z,39.40
2018-07-01T11:52:22.696Z,39.30
2018-07-01T11:54:51.938Z,39.80
2018-07-01T11:57:21.179Z,39.30
2018-07-01T11:59:50.502Z,40.40
2018-07-01T12:02:19.709Z,40.00
2018-07-01T12:05:02.952Z,40.50
2018-07-01T12:07:18.402Z,39.90
2018-07-01T12:09:47.693Z,40.20
2018-07-01T12:12:16.925Z,40.10
2018-07-01T12:14:46.350Z,39.60
2018-07-01T12:17:15.652Z,40.10
2018-07-01T12:19:44.937Z,40.40
2018-07-01T12:24:43.013Z,40.30
2018-07-01T12:27:12.271Z,40.40
2018-07-01T12:29:41.681Z,40.20
2018-07-01T12:32:10.918Z,40.80
2018-07-01T12:34:40.433Z,40.80
2018-07-01T12:37:09.738Z,40.30
2018-07-01T12:39:39.009Z,40.80
2018-07-01T12:42:08.504Z,40.50
2018-07-01T12:44:38.789Z,40.80
2018-07-01T12:49:36.837Z,39.90
2018-07-01T12:52:06.111Z,40.00
2018-07-01T12:54:35.372Z,40.50
2018-07-01T12:57:04.610Z,40.90
2018-07-01T13:02:02.691Z,40.40
2018-07-01T13:04:31.984Z,41.00
2018-07-01T13:07:01.270Z,40.10
2018-07-01T13:09:30.519Z,40.70
2018-07-01T13:11:59.857Z,39.50
2018-07-01T13:14:29.086Z,40.10
2018-07-01T13:16:58.317Z,39.70
2018-07-01T13:19:27.590Z,40.20
2018-07-01T13:21:56.900Z,39.80
2018-07-01T13:24:26.129Z,40.20
2018-07-01T13:26:55.382Z,40.10
2018-07-01T13:29:24.783Z,40.10
2018-07-01T13:31:54.057Z,40.30
2018-07-01T13:34:23.373Z,40.60
2018-07-01T13:36:52.709Z,40.40
2018-07-01T13:41:50.993Z,39.90
2018-07-01T13:44:20.300Z,41.10
2018-07-01T13:46:49.563Z,40.70
2018-07-01T13:49:19.841Z,40.50
2018-07-01T13:51:49.113Z,41.10
2018-07-01T13:54:18.342Z,41.50
2018-07-01T13:56:47.765Z,40.50
2018-07-01T13:59:16.953Z,40.40
2018-07-01T14:01:46.487Z,41.10
2018-07-01T14:04:15.833Z,41.60
2018-07-01T14:06:45.179Z,41.30
2018-07-01T14:09:14.515Z,40.70
2018-07-01T14:11:43.782Z,40.40
2018-07-01T14:14:13.094Z,40.30
2018-07-01T14:16:42.370Z,40.80
2018-07-01T14:19:11.654Z,41.50
2018-07-01T14:21:40.946Z,41.00
2018-07-01T14:24:10.188Z,40.70
2018-07-01T14:26:39.461Z,40.60
2018-07-01T14:29:08.850Z,40.00
2018-07-01T14:31:38.229Z,40.50
2018-07-01T14:34:07.513Z,40.20
2018-07-01T14:36:36.782Z,40.50
2018-07-01T14:39:09.134Z,40.40
2018-07-01T14:41:38.459Z,40.40
2018-07-01T14:44:07.729Z,39.90
2018-07-01T14:46:36.978Z,40.00
2018-07-01T14:49:06.545Z,40.50
2018-07-01T14:51:36.065Z,40.10
2018-07-01T14:54:05.573Z,40.60
2018-07-01T14:56:34.878Z,40.70
2018-07-01T14:59:04.261Z,41.50
2018-07-01T15:01:33.691Z,40.60
2018-07-01T15:04:03.051Z,40.90
2018-07-01T15:06:32.373Z,40.60
2018-07-01T15:09:01.656Z,40.90
2018-07-01T15:11:30.969Z,40.90
2018-07-01T15:14:00.225Z,40.30
2018-07-01T15:16:29.576Z,40.20
2018-07-01T15:18:58.789Z,40.80
2018-07-01T15:21:28.078Z,40.50
2018-07-01T15:23:57.338Z,40.10
2018-07-01T15:26:26.783Z,40.70
2018-07-01T15:28:56.077Z,40.20
2018-07-01T15:31:25.350Z,40.70
2018-07-01T15:33:54.674Z,40.00
2018-07-01T15:36:23.965Z,40.50
2018-07-01T15:38:53.224Z,40.90
2018-07-01T15:41:22.603Z,40.30
2018-07-01T15:43:51.903Z,40.10
2018-07-01T15:46:21.219Z,40.60
2018-07-01T15:48:50.473Z,40.20
2018-07-01T15:51:19.749Z,40.80
2018-07-01T15:53:49.061Z,40.70
2018-07-01T15:56:18.365Z,40.40
2018-07-01T15:58:47.617Z,40.10
2018-07-01T16:01:16.881Z,40.30
2018-07-01T16:03:46.162Z,40.20
2018-07-01T16:06:15.457Z,40.10
2018-07-01T16:08:44.770Z,40.60
2018-07-01T16:11:14.044Z,40.40
2018-07-01T16:13:43.290Z,40.20
2018-07-01T16:16:12.550Z,40.90
2018-07-01T16:18:41.773Z,40.20
2018-07-01T16:21:11.102Z,40.40
2018-07-01T16:23:40.394Z,40.40
2018-07-01T16:26:14.918Z,40.20
2018-07-01T16:28:49.773Z,40.30
2018-07-01T16:31:19.021Z,41.10
2018-07-01T16:33:48.289Z,40.40
2018-07-01T16:36:17.631Z,40.40
2018-07-01T16:38:46.965Z,40.90
2018-07-01T16:41:16.218Z,40.20
2018-07-01T16:43:45.487Z,40.20
2018-07-01T16:46:14.773Z,40.30
2018-07-01T16:48:44.031Z,40.10
2018-07-01T16:51:13.434Z,40.70
2018-07-01T16:53:42.757Z,40.00
2018-07-01T16:56:12.082Z,40.10
2018-07-01T16:58:41.340Z,40.00
2018-07-01T17:01:10.751Z,40.60
2018-07-01T17:03:40.366Z,40.70
2018-07-01T17:06:09.674Z,40.70
2018-07-01T17:08:39.019Z,41.20
2018-07-01T17:11:08.474Z,40.40
2018-07-01T17:13:37.820Z,40.50
2018-07-01T17:16:07.995Z,40.20
2018-07-01T17:18:37.793Z,40.40
2018-07-01T17:21:07.526Z,40.60
2018-07-01T17:23:38.258Z,40.60
2018-07-01T17:26:09.337Z,41.10
2018-07-01T17:28:38.562Z,40.70
2018-07-01T17:31:14.695Z,40.80
2018-07-01T17:33:46.952Z,40.80
2018-07-01T17:36:16.285Z,40.90
2018-07-01T17:38:45.614Z,41.40
2018-07-01T17:41:15.186Z,41.00
2018-07-01T17:43:44.714Z,41.60
2018-07-01T17:46:15.426Z,41.70
2018-07-01T17:48:44.685Z,41.60
2018-07-01T17:51:15.447Z,42.20
2018-07-01T17:53:54.585Z,41.60
2018-07-01T17:56:23.854Z,41.70
2018-07-01T17:58:53.936Z,41.70
2018-07-01T18:01:23.618Z,41.80
2018-07-01T18:06:24.069Z,41.90
2018-07-01T18:08:53.521Z,41.90
2018-07-01T18:11:24.874Z,42.50
2018-07-01T18:13:54.432Z,42.10
2018-07-01T18:16:23.835Z,42.10
2018-07-01T18:18:53.052Z,42.10
2018-07-01T18:21:33.618Z,42.20
2018-07-01T18:24:19.498Z,42.70
2018-07-01T18:26:20.925Z,42.70
2018-07-01T18:28:59.161Z,42.40
2018-07-01T18:31:19.555Z,42.90
2018-07-01T18:33:48.811Z,42.40
2018-07-01T18:36:18.065Z,42.90
2018-07-01T18:38:47.368Z,42.50
2018-07-01T18:41:16.642Z,42.50
2018-07-01T18:43:46.040Z,42.50
2018-07-01T18:46:15.297Z,42.60
2018-07-01T18:48:44.650Z,42.60
2018-07-01T18:53:43.321Z,43.10
2018-07-01T18:56:12.614Z,42.70
2018-07-01T18:58:41.854Z,42.70
2018-07-01T19:01:11.158Z,42.80
2018-07-01T19:03:40.421Z,43.30
2018-07-01T19:06:09.729Z,42.90
2018-07-01T19:08:39.105Z,42.90
2018-07-01T19:11:08.406Z,43.40
2018-07-01T19:13:37.666Z,42.90
2018-07-01T19:16:06.918Z,43.60
2018-07-01T19:18:36.347Z,43.20
2018-07-01T19:21:07.462Z,43.70
2018-07-01T19:23:37.114Z,43.80
2018-07-01T19:26:06.838Z,43.60
2018-07-01T19:28:36.102Z,43.50
2018-07-01T19:31:05.361Z,43.60
2018-07-01T19:33:34.910Z,43.60
2018-07-01T19:36:04.199Z,44.10
2018-07-01T19:38:33.479Z,43.60
2018-07-01T19:43:31.650Z,43.60
2018-07-01T19:46:00.743Z,43.70
2018-07-01T19:48:30.091Z,44.20
2018-07-01T19:50:59.365Z,43.70
2018-07-01T19:53:28.679Z,43.90
2018-07-01T19:55:57.948Z,43.80
2018-07-01T19:58:27.203Z,43.70
2018-07-01T20:00:56.466Z,43.80
2018-07-01T20:03:25.853Z,44.30
2018-07-01T20:05:55.098Z,44.40
2018-07-01T20:08:24.372Z,44.10
2018-07-01T20:10:53.639Z,44.00
2018-07-01T20:13:23.072Z,45.10
2018-07-01T20:15:52.355Z,45.00
2018-07-01T20:18:21.657Z,44.40
2018-07-01T20:20:50.995Z,43.80
2018-07-01T20:23:20.254Z,43.90
2018-07-01T20:25:49.534Z,43.90
2018-07-01T20:28:18.817Z,43.80
2018-07-01T20:30:48.065Z,44.30
2018-07-01T20:33:17.439Z,43.80
2018-07-01T20:38:15.752Z,43.60
2018-07-01T20:40:45.043Z,43.60
2018-07-01T20:43:14.320Z,43.50
2018-07-01T20:45:44.425Z,43.50
2018-07-01T20:48:13.668Z,44.00
2018-07-01T20:50:43.705Z,44.00
2018-07-01T20:53:13.150Z,43.30
2018-07-01T20:55:42.427Z,43.30
2018-07-01T21:00:40.486Z,43.30
2018-07-01T21:03:09.760Z,43.30
2018-07-01T21:05:39.156Z,44.80
2018-07-01T21:10:37.537Z,44.40
2018-07-01T21:13:06.810Z,44.40
2018-07-01T21:15:36.027Z,44.40
2018-07-01T21:18:05.821Z,43.90
2018-07-01T21:20:35.166Z,43.90
2018-07-01T21:23:04.447Z,43.40
2018-07-01T21:25:33.797Z,43.80
2018-07-01T21:28:03.067Z,42.50
2018-07-01T21:33:01.687Z,42.50
2018-07-01T21:35:30.971Z,42.80
2018-07-01T21:38:00.279Z,42.50
2018-07-01T21:40:29.581Z,42.20
2018-07-01T21:42:58.862Z,41.50
2018-07-01T21:47:56.979Z,41.50
2018-07-01T21:52:55.094Z,41.40
2018-07-01T21:55:25.237Z,41.90
2018-07-01T21:57:54.554Z,41.70
2018-07-01T22:00:29.290Z,41.60
2018-07-01T22:02:58.873Z,41.80
2018-07-01T22:05:29.040Z,41.10
2018-07-01T22:07:58.302Z,41.50
2018-07-01T22:10:38.791Z,40.60
2018-07-01T22:15:53.628Z,40.80
2018-07-01T22:18:23.144Z,41.40
2018-07-01T22:20:52.467Z,41.00
2018-07-01T22:23:21.740Z,41.50
2018-07-01T22:25:51.018Z,41.20
2018-07-01T22:28:20.346Z,41.40
2018-07-01T22:30:49.595Z,41.90
2018-07-01T22:33:18.953Z,42.00
2018-07-01T22:38:17.131Z,41.90
2018-07-01T22:40:46.377Z,42.40
2018-07-01T22:43:15.639Z,42.10
2018-07-01T22:45:44.935Z,42.20
2018-07-01T22:48:14.396Z,42.30
2018-07-01T22:50:43.675Z,42.40
2018-07-01T22:53:12.943Z,42.50
2018-07-01T22:55:42.244Z,42.90
2018-07-01T22:58:11.564Z,43.00
2018-07-01T23:00:40.805Z,43.10
2018-07-01T23:03:19.887Z,42.70
2018-07-01T23:05:49.146Z,42.70
2018-07-01T23:08:18.554Z,43.20
2018-07-01T23:10:47.869Z,42.70
2018-07-01T23:13:17.137Z,43.30
2018-07-01T23:15:46.513Z,42.90
2018-07-01T23:18:15.876Z,43.40
2018-07-01T23:20:45.251Z,42.90
2018-07-01T23:23:14.488Z,43.50
2018-07-01T23:25:43.761Z,42.90
2018-07-01T23:28:13.062Z,42.90
2018-07-01T23:30:42.330Z,43.00
2018-07-01T23:33:11.666Z,42.90
2018-07-01T23:35:40.929Z,43.40
2018-07-01T23:38:10.313Z,43.40
2018-07-01T23:40:39.618Z,43.10
2018-07-01T23:43:08.888Z,43.70
2018-07-01T23:45:38.203Z,43.60
2018-07-01T23:48:07.449Z,43.00
2018-07-01T23:50:36.697Z,43.00
2018-07-01T23:58:03.918Z,43.20
